Time;durP1;ratioP1;P1;durP2;ratioP2;P2;SDS_P1;SDS_P2;PMS_P1;PMS_P2;Temp;Humidity;BMP_temperature;BMP_pressure;BME280_temperature;BME280_humidity;BME280_pressure;Samples;Min_cycle;Max_cycle;Signal;HPM_P1;HPM_P2
2023/04/11 00:00:17;;;;;;;1.83;1.73;;;;;;;;;;5012078;28;20603;-53
2023/04/11 00:02:45;;;;;;;2.80;1.73;;;;;;;;;;5012395;28;20155;-54
2023/04/11 00:05:11;;;;;;;1.60;1.30;;;;;;;;;;5012132;28;20183;-55
2023/04/11 00:07:37;;;;;;;1.83;1.73;;;;;;;;;;5011185;28;20673;-55
2023/04/11 00:10:05;;;;;;;1.73;1.63;;;;;;;;;;5011366;28;20169;-55
2023/04/11 00:12:32;;;;;;;1.77;1.63;;;;;;;;;;5012628;28;20198;-55
2023/04/11 00:14:58;;;;;;;2.63;1.80;;;;;;;;;;5011483;28;20249;-56
2023/04/11 00:17:24;;;;;;;4.27;2.70;;;;;;;;;;5012239;28;20198;-55
2023/04/11 00:19:52;;;;;;;2.13;1.93;;;;;;;;;;5007476;28;20729;-56
2023/04/11 00:22:18;;;;;;;2.17;2.03;;;;;;;;;;4992459;28;20314;-55
2023/04/11 00:24:44;;;;;;;1.97;1.67;;;;;;;;;;4991337;28;20179;-55
2023/04/11 00:27:10;;;;;;;2.37;2.10;;;;;;;;;;4992906;28;20287;-55
2023/04/11 00:29:37;;;;;;;1.57;1.47;;;;;;;;;;4992256;28;20323;-55
2023/04/11 00:32:03;;;;;;;2.73;1.83;;;;;;;;;;5007626;28;20186;-55
2023/04/11 00:34:30;;;;;;;1.97;1.83;;;;;;;;;;4999460;28;20548;-54
2023/04/11 00:36:56;;;;;;;3.13;2.60;;;;;;;;;;4999618;28;20178;-55
2023/04/11 00:39:25;;;;;;;2.73;1.80;;;;;;;;;;5010666;28;20205;-55
2023/04/11 00:41:51;;;;;;;2.30;1.53;;;;;;;;;;5011717;28;20202;-55
2023/04/11 00:44:17;;;;;;;1.70;1.60;;;;;;;;;;5011252;28;20163;-55
2023/04/11 00:46:44;;;;;;;2.37;1.80;;;;;;;;;;5011141;28;20198;-53
2023/04/11 00:49:10;;;;;;;1.97;1.73;;;;;;;;;;5010605;28;20551;-54
2023/04/11 00:51:37;;;;;;;3.07;1.70;;;;;;;;;;5009564;28;20268;-54
2023/04/11 00:54:03;;;;;;;4.40;2.13;;;;;;;;;;5009537;28;20194;-55
2023/04/11 00:56:29;;;;;;;2.53;1.60;;;;;;;;;;5011611;28;20535;-54
2023/04/11 00:58:55;;;;;;;2.77;1.87;;;;;;;;;;5011234;28;20529;-54
2023/04/11 01:01:22;;;;;;;2.63;1.97;;;;;;;;;;5010795;28;20210;-54
2023/04/11 01:03:49;;;;;;;2.17;1.50;;;;;;;;;;5010787;28;20167;-55
2023/04/11 01:06:18;;;;;;;2.73;1.80;;;;;;;;;;5011686;28;20381;-55
2023/04/11 01:08:44;;;;;;;3.43;1.87;;;;;;;;;;5010225;28;20605;-56
2023/04/11 01:11:11;;;;;;;1.70;1.60;;;;;;;;;;5011495;28;20588;-55
2023/04/11 01:13:41;;;;;;;2.43;1.73;;;;;;;;;;5011067;28;20672;-54
2023/04/11 01:16:08;;;;;;;2.70;1.97;;;;;;;;;;5010713;28;20167;-53
2023/04/11 01:18:35;;;;;;;3.03;2.20;;;;;;;;;;5011269;28;20616;-53
2023/04/11 01:21:01;;;;;;;3.73;1.90;;;;;;;;;;4996731;28;20227;-54
2023/04/11 01:23:27;;;;;;;3.17;2.40;;;;;;;;;;4990803;28;20631;-55
2023/04/11 01:25:53;;;;;;;2.40;2.10;;;;;;;;;;4991030;28;20620;-54
2023/04/11 01:28:20;;;;;;;2.43;2.20;;;;;;;;;;4991350;28;20181;-53
2023/04/11 01:30:46;;;;;;;8.10;2.37;;;;;;;;;;4991279;28;20194;-53
2023/04/11 01:33:13;;;;;;;2.93;2.30;;;;;;;;;;5023310;28;20228;-53
2023/04/11 01:35:39;;;;;;;10.37;3.33;;;;;;;;;;5010875;28;20278;-54
2023/04/11 01:38:05;;;;;;;5.10;3.00;;;;;;;;;;5010936;28;20785;-54
2023/04/11 01:40:32;;;;;;;7.97;3.73;;;;;;;;;;5009465;28;20191;-54
2023/04/11 01:42:58;;;;;;;11.07;3.67;;;;;;;;;;5010302;28;20174;-54
2023/04/11 01:45:28;;;;;;;4.43;3.17;;;;;;;;;;5010527;28;20191;-54
2023/04/11 01:47:55;;;;;;;4.50;3.10;;;;;;;;;;5010253;28;20630;-53
2023/04/11 01:50:21;;;;;;;9.37;4.47;;;;;;;;;;4992404;28;20206;-54
2023/04/11 01:52:48;;;;;;;7.87;3.27;;;;;;;;;;5010788;28;20180;-54
2023/04/11 01:55:14;;;;;;;6.87;3.50;;;;;;;;;;5009349;28;20175;-54
2023/04/11 01:57:40;;;;;;;5.87;3.53;;;;;;;;;;5010481;28;20174;-54
2023/04/11 02:00:10;;;;;;;6.57;4.00;;;;;;;;;;5009868;28;20219;-53
2023/04/11 02:02:36;;;;;;;10.30;4.17;;;;;;;;;;5010031;28;20605;-54
2023/04/11 02:05:02;;;;;;;9.10;4.10;;;;;;;;;;5009467;28;20562;-54
2023/04/11 02:07:29;;;;;;;10.20;3.80;;;;;;;;;;5010263;28;20172;-55
2023/04/11 02:09:56;;;;;;;12.30;4.47;;;;;;;;;;5009183;28;20535;-52
2023/04/11 02:12:22;;;;;;;10.90;3.90;;;;;;;;;;5010154;28;20221;-54
2023/04/11 02:14:48;;;;;;;15.57;4.90;;;;;;;;;;5009550;28;20225;-54
2023/04/11 02:17:17;;;;;;;9.63;3.63;;;;;;;;;;5009922;28;20190;-54
2023/04/11 02:19:44;;;;;;;7.07;3.70;;;;;;;;;;5009337;28;20263;-54
2023/04/11 02:22:13;;;;;;;8.80;4.70;;;;;;;;;;5009942;28;20372;-53
2023/04/11 02:24:39;;;;;;;6.20;3.40;;;;;;;;;;5008536;28;20167;-54
2023/04/11 02:27:06;;;;;;;9.17;4.33;;;;;;;;;;5009964;28;20171;-54
2023/04/11 02:29:32;;;;;;;13.83;4.33;;;;;;;;;;5009605;28;20611;-54
2023/04/11 02:31:58;;;;;;;6.60;3.70;;;;;;;;;;5009975;28;20273;-57
2023/04/11 02:34:24;;;;;;;6.93;3.83;;;;;;;;;;5008820;28;20191;-55
2023/04/11 02:36:50;;;;;;;9.17;3.70;;;;;;;;;;5009724;28;20181;-54
2023/04/11 02:39:16;;;;;;;12.17;4.50;;;;;;;;;;5008593;28;20178;-53
2023/04/11 02:41:42;;;;;;;10.13;3.50;;;;;;;;;;5009709;28;20205;-54
2023/04/11 02:44:10;;;;;;;11.60;4.67;;;;;;;;;;5009350;28;20158;-54
2023/04/11 02:46:36;;;;;;;9.57;4.63;;;;;;;;;;5009616;28;20175;-53
2023/04/11 02:49:02;;;;;;;14.23;3.93;;;;;;;;;;5009339;28;20534;-54
2023/04/11 02:51:29;;;;;;;11.53;3.70;;;;;;;;;;5010258;28;20230;-54
2023/04/11 02:53:55;;;;;;;9.43;3.93;;;;;;;;;;5008390;28;20662;-54
2023/04/11 02:56:22;;;;;;;10.37;3.73;;;;;;;;;;5009649;28;20646;-54
2023/04/11 02:58:48;;;;;;;7.73;3.70;;;;;;;;;;5009340;28;20274;-54
2023/04/11 03:01:15;;;;;;;9.50;6.70;;;;;;;;;;5009567;28;20257;-54
2023/04/11 03:03:42;;;;;;;9.87;4.07;;;;;;;;;;5008627;28;20186;-55
2023/04/11 03:06:08;;;;;;;8.77;4.17;;;;;;;;;;5009708;28;20202;-55
2023/04/11 03:08:36;;;;;;;11.40;4.53;;;;;;;;;;5008713;28;20270;-55
2023/04/11 03:11:02;;;;;;;10.37;4.47;;;;;;;;;;5009002;28;20204;-55
2023/04/11 03:13:28;;;;;;;12.00;4.57;;;;;;;;;;5009277;28;20626;-56
2023/04/11 03:15:54;;;;;;;9.80;4.47;;;;;;;;;;5009401;28;20308;-54
2023/04/11 03:18:21;;;;;;;8.97;5.23;;;;;;;;;;5009390;28;20170;-54
2023/04/11 03:20:47;;;;;;;8.37;4.67;;;;;;;;;;4996803;28;20246;-54
2023/04/11 03:23:13;;;;;;;7.13;3.50;;;;;;;;;;4989638;28;20628;-55
2023/04/11 03:25:39;;;;;;;11.23;4.10;;;;;;;;;;4988568;28;20564;-55
2023/04/11 03:28:06;;;;;;;7.93;4.20;;;;;;;;;;4989624;28;20647;-54
2023/04/11 03:30:32;;;;;;;9.47;4.30;;;;;;;;;;4989493;28;20266;-54
2023/04/11 03:32:59;;;;;;;7.47;3.97;;;;;;;;;;4989666;28;20197;-54
2023/04/11 03:35:25;;;;;;;10.10;3.70;;;;;;;;;;4993280;28;20278;-53
2023/04/11 03:37:51;;;;;;;14.63;4.43;;;;;;;;;;5009279;28;20167;-54
2023/04/11 03:40:17;;;;;;;8.60;5.27;;;;;;;;;;5007836;28;20170;-54
2023/04/11 03:42:43;;;;;;;9.17;3.97;;;;;;;;;;5009275;28;20213;-54
2023/04/11 03:45:09;;;;;;;7.03;3.97;;;;;;;;;;5008563;28;20178;-54
2023/04/11 03:47:35;;;;;;;8.70;4.17;;;;;;;;;;5009093;28;20166;-53
2023/04/11 03:50:02;;;;;;;11.83;4.70;;;;;;;;;;5008152;28;20171;-54
2023/04/11 03:52:28;;;;;;;10.10;4.83;;;;;;;;;;5009160;28;20174;-54
2023/04/11 03:54:54;;;;;;;11.93;4.33;;;;;;;;;;5007626;28;20221;-55
2023/04/11 03:57:20;;;;;;;6.83;3.50;;;;;;;;;;5008906;28;20163;-54
2023/04/11 03:59:46;;;;;;;9.83;4.67;;;;;;;;;;5008683;28;20183;-54
2023/04/11 04:02:14;;;;;;;12.13;6.07;;;;;;;;;;5009164;28;20203;-54
2023/04/11 04:04:42;;;;;;;9.33;4.20;;;;;;;;;;5007997;28;20189;-55
2023/04/11 04:07:08;;;;;;;10.37;4.87;;;;;;;;;;5008825;28;20217;-54
2023/04/11 04:09:35;;;;;;;9.27;4.33;;;;;;;;;;5007356;28;20163;-54
2023/04/11 04:12:01;;;;;;;12.93;4.37;;;;;;;;;;5008760;28;20214;-53
2023/04/11 04:14:27;;;;;;;9.67;4.87;;;;;;;;;;5008653;28;20186;-53
2023/04/11 04:16:53;;;;;;;9.30;4.20;;;;;;;;;;5008762;28;20167;-54
2023/04/11 04:19:19;;;;;;;7.30;4.00;;;;;;;;;;5007609;28;20174;-55
2023/04/11 04:21:45;;;;;;;9.30;4.37;;;;;;;;;;5008455;28;20234;-55
2023/04/11 04:24:11;;;;;;;9.57;4.90;;;;;;;;;;5007371;28;20174;-54
2023/04/11 04:26:40;;;;;;;10.47;4.27;;;;;;;;;;5008853;28;20179;-55
2023/04/11 04:29:08;;;;;;;8.60;4.37;;;;;;;;;;5010882;28;20162;-54
2023/04/11 04:31:35;;;;;;;6.17;3.53;;;;;;;;;;5011987;28;20162;-54
2023/04/11 04:34:02;;;;;;;7.10;3.60;;;;;;;;;;5011887;28;20198;-54
2023/04/11 04:36:29;;;;;;;12.33;4.20;;;;;;;;;;5011663;28;21046;-54
2023/04/11 04:39:00;;;;;;;8.80;4.30;;;;;;;;;;5010324;28;20182;-54
2023/04/11 04:41:35;;;;;;;11.30;3.80;;;;;;;;;;5011706;28;20202;-54
2023/04/11 04:44:04;;;;;;;12.43;4.10;;;;;;;;;;5011634;28;20188;-55
2023/04/11 04:46:35;;;;;;;7.67;3.67;;;;;;;;;;5011805;28;20256;-53
2023/04/11 04:49:01;;;;;;;11.53;3.87;;;;;;;;;;5010952;28;20678;-54
2023/04/11 04:51:29;;;;;;;7.83;4.47;;;;;;;;;;5010121;28;20218;-55
2023/04/11 04:53:56;;;;;;;11.80;3.90;;;;;;;;;;5009055;28;20305;-54
2023/04/11 04:56:22;;;;;;;8.57;3.90;;;;;;;;;;5010499;28;20652;-54
2023/04/11 04:58:48;;;;;;;7.17;3.37;;;;;;;;;;5011221;28;20181;-54
2023/04/11 05:01:15;;;;;;;7.53;3.37;;;;;;;;;;5011268;28;20234;-54
2023/04/11 05:03:43;;;;;;;7.17;3.43;;;;;;;;;;5011353;28;20163;-54
2023/04/11 05:06:09;;;;;;;11.57;4.30;;;;;;;;;;5011102;28;20210;-55
2023/04/11 05:08:35;;;;;;;11.90;4.43;;;;;;;;;;5010628;28;20216;-54
2023/04/11 05:11:01;;;;;;;13.77;4.23;;;;;;;;;;5011202;28;20277;-54
2023/04/11 05:13:27;;;;;;;13.67;3.63;;;;;;;;;;5011606;28;20629;-54
2023/04/11 05:15:53;;;;;;;8.13;3.30;;;;;;;;;;5010957;28;20171;-55
2023/04/11 05:18:19;;;;;;;8.40;3.17;;;;;;;;;;5011097;28;20189;-54
2023/04/11 05:20:45;;;;;;;11.63;3.97;;;;;;;;;;5006622;28;20206;-56
2023/04/11 05:23:11;;;;;;;11.10;3.27;;;;;;;;;;5011035;28;20171;-55
2023/04/11 05:25:37;;;;;;;7.50;3.43;;;;;;;;;;5010174;28;20170;-55
2023/04/11 05:28:04;;;;;;;10.80;3.90;;;;;;;;;;5010824;28;20167;-54
2023/04/11 05:30:30;;;;;;;7.60;3.60;;;;;;;;;;5010826;28;20208;-54
2023/04/11 05:32:57;;;;;;;9.67;3.63;;;;;;;;;;5011069;28;20397;-54
2023/04/11 05:35:23;;;;;;;7.63;3.23;;;;;;;;;;5010144;28;20191;-55
2023/04/11 05:37:49;;;;;;;10.17;3.17;;;;;;;;;;5010662;28;20393;-55
2023/04/11 05:40:15;;;;;;;8.50;3.00;;;;;;;;;;5008476;28;20174;-55
2023/04/11 05:42:42;;;;;;;7.33;3.10;;;;;;;;;;5011147;28;20162;-55
2023/04/11 05:45:08;;;;;;;6.80;3.53;;;;;;;;;;5010503;28;20166;-54
2023/04/11 05:47:34;;;;;;;6.90;3.50;;;;;;;;;;5010783;28;20615;-54
2023/04/11 05:50:00;;;;;;;7.60;3.17;;;;;;;;;;5010447;28;20175;-54
2023/04/11 05:52:26;;;;;;;8.10;3.77;;;;;;;;;;5010085;28;20167;-54
2023/04/11 05:54:52;;;;;;;7.63;3.60;;;;;;;;;;5009430;28;20232;-54
2023/04/11 05:57:18;;;;;;;7.93;3.33;;;;;;;;;;5010873;28;20178;-54
2023/04/11 05:59:48;;;;;;;6.13;3.13;;;;;;;;;;5010212;28;20637;-54
2023/04/11 06:02:14;;;;;;;7.60;3.90;;;;;;;;;;5010520;28;20210;-54
2023/04/11 06:04:40;;;;;;;7.57;3.47;;;;;;;;;;5010430;28;20611;-54
2023/04/11 06:07:07;;;;;;;7.97;3.47;;;;;;;;;;4997237;28;20237;-54
2023/04/11 06:09:33;;;;;;;8.90;3.73;;;;;;;;;;4989714;28;20541;-54
2023/04/11 06:12:00;;;;;;;7.63;3.50;;;;;;;;;;4990492;28;20206;-54
2023/04/11 06:14:26;;;;;;;8.17;3.30;;;;;;;;;;4990322;28;20168;-54
2023/04/11 06:16:52;;;;;;;9.67;3.57;;;;;;;;;;4990315;28;20237;-54
2023/04/11 06:19:18;;;;;;;7.53;3.30;;;;;;;;;;4990307;28;20175;-54
2023/04/11 06:21:44;;;;;;;5.67;2.83;;;;;;;;;;5001755;28;20242;-54
2023/04/11 06:24:10;;;;;;;9.83;3.70;;;;;;;;;;5008853;28;20186;-54
2023/04/11 06:26:37;;;;;;;6.57;3.17;;;;;;;;;;5010133;28;20175;-54
2023/04/11 06:29:06;;;;;;;8.77;3.37;;;;;;;;;;5009867;28;20163;-52
2023/04/11 06:31:32;;;;;;;5.90;3.67;;;;;;;;;;5006410;28;20195;-54
2023/04/11 06:33:59;;;;;;;12.30;3.90;;;;;;;;;;4989989;28;20198;-54
2023/04/11 06:36:26;;;;;;;5.90;2.60;;;;;;;;;;4997125;28;20639;-55
2023/04/11 06:38:52;;;;;;;9.47;3.67;;;;;;;;;;5008593;28;20173;-53
2023/04/11 06:41:18;;;;;;;8.63;3.07;;;;;;;;;;5010053;28;20199;-53
2023/04/11 06:43:44;;;;;;;5.37;2.40;;;;;;;;;;5009510;28;20175;-54
2023/04/11 06:46:10;;;;;;;8.93;3.40;;;;;;;;;;5009959;28;20366;-54
2023/04/11 06:48:37;;;;;;;7.13;3.07;;;;;;;;;;5009120;28;20177;-53
2023/04/11 06:51:03;;;;;;;7.00;2.93;;;;;;;;;;5008934;28;20178;-53
2023/04/11 06:53:29;;;;;;;8.07;3.63;;;;;;;;;;5009347;28;20442;-54
2023/04/11 06:55:55;;;;;;;7.63;2.90;;;;;;;;;;5008861;28;20174;-54
2023/04/11 06:58:21;;;;;;;10.37;3.37;;;;;;;;;;5009344;28;20181;-54
2023/04/11 07:00:47;;;;;;;5.80;2.90;;;;;;;;;;5009620;28;20201;-53
2023/04/11 07:03:13;;;;;;;9.03;3.17;;;;;;;;;;5009325;28;20209;-53
2023/04/11 07:05:39;;;;;;;5.57;3.20;;;;;;;;;;5009187;28;20169;-54
2023/04/11 07:08:05;;;;;;;6.67;2.90;;;;;;;;;;5008860;28;20162;-54
2023/04/11 07:10:31;;;;;;;6.97;2.60;;;;;;;;;;5008127;28;20202;-54
2023/04/11 07:12:58;;;;;;;8.50;3.00;;;;;;;;;;5009033;28;20198;-53
2023/04/11 07:15:24;;;;;;;7.30;3.40;;;;;;;;;;5009107;28;20170;-54
2023/04/11 07:17:50;;;;;;;6.37;2.77;;;;;;;;;;5009087;28;20182;-54
2023/04/11 07:20:16;;;;;;;9.40;4.27;;;;;;;;;;5008694;28;20182;-54
2023/04/11 07:22:42;;;;;;;6.60;3.07;;;;;;;;;;5008510;28;20304;-54
2023/04/11 07:25:09;;;;;;;5.27;2.73;;;;;;;;;;5007108;28;20200;-57
2023/04/11 07:27:35;;;;;;;7.13;3.40;;;;;;;;;;5009602;28;20638;-55
2023/04/11 07:30:01;;;;;;;7.90;3.03;;;;;;;;;;5008905;28;20615;-55
2023/04/11 07:32:27;;;;;;;6.47;2.83;;;;;;;;;;5008669;28;20208;-55
2023/04/11 07:34:54;;;;;;;6.77;3.37;;;;;;;;;;5008855;28;20630;-55
2023/04/11 07:37:20;;;;;;;6.43;2.90;;;;;;;;;;5008351;28;20174;-55
2023/04/11 07:39:46;;;;;;;5.00;2.80;;;;;;;;;;5007349;28;20183;-55
2023/04/11 07:42:12;;;;;;;7.17;3.00;;;;;;;;;;5008774;28;20225;-55
2023/04/11 07:44:38;;;;;;;5.53;3.23;;;;;;;;;;5007941;28;20167;-55
2023/04/11 07:47:04;;;;;;;4.73;3.70;;;;;;;;;;5008792;28;20179;-54
2023/04/11 07:49:30;;;;;;;7.07;3.10;;;;;;;;;;5008933;28;20171;-53
2023/04/11 07:51:56;;;;;;;5.57;3.03;;;;;;;;;;5008889;28;20690;-53
2023/04/11 07:54:24;;;;;;;7.77;3.13;;;;;;;;;;5007760;28;20186;-53
2023/04/11 07:56:50;;;;;;;7.10;3.27;;;;;;;;;;5007831;28;20642;-54
2023/04/11 07:59:16;;;;;;;4.53;2.50;;;;;;;;;;5008385;28;20672;-54
2023/04/11 08:01:42;;;;;;;10.63;3.53;;;;;;;;;;5008948;28;20702;-54
2023/04/11 08:04:08;;;;;;;8.30;3.30;;;;;;;;;;5011080;28;20245;-54
2023/04/11 08:06:34;;;;;;;7.90;3.20;;;;;;;;;;5012743;28;20177;-54
2023/04/11 08:09:00;;;;;;;5.97;2.93;;;;;;;;;;5010790;28;20285;-54
2023/04/11 08:11:26;;;;;;;5.30;2.90;;;;;;;;;;5012728;28;20218;-55
2023/04/11 08:13:53;;;;;;;6.20;3.17;;;;;;;;;;5011950;28;20597;-54
2023/04/11 08:16:19;;;;;;;10.20;4.07;;;;;;;;;;5012446;28;20588;-54
2023/04/11 08:18:45;;;;;;;5.37;3.30;;;;;;;;;;5005561;28;20274;-54
2023/04/11 08:21:11;;;;;;;3.93;3.17;;;;;;;;;;4993541;28;20234;-53
2023/04/11 08:23:41;;;;;;;6.57;3.13;;;;;;;;;;5004736;28;20620;-54
2023/04/11 08:26:08;;;;;;;6.03;2.53;;;;;;;;;;5012572;28;20250;-54
2023/04/11 08:28:35;;;;;;;6.60;3.13;;;;;;;;;;5011783;28;20174;-55
2023/04/11 08:31:02;;;;;;;5.20;2.53;;;;;;;;;;5012321;28;20167;-55
2023/04/11 08:33:28;;;;;;;3.00;2.27;;;;;;;;;;5012102;28;20187;-53
2023/04/11 08:35:54;;;;;;;6.70;4.20;;;;;;;;;;5011819;28;20178;-54
2023/04/11 08:38:20;;;;;;;7.50;3.67;;;;;;;;;;5011713;28;20186;-54
2023/04/11 08:40:47;;;;;;;7.60;2.47;;;;;;;;;;5011411;28;20344;-54
2023/04/11 08:43:13;;;;;;;5.27;2.40;;;;;;;;;;5011812;28;20196;-53
2023/04/11 08:45:39;;;;;;;9.97;2.83;;;;;;;;;;5011839;28;20673;-54
2023/04/11 08:48:06;;;;;;;5.07;2.63;;;;;;;;;;5011766;28;20189;-54
2023/04/11 08:50:32;;;;;;;7.67;2.33;;;;;;;;;;5011841;28;20175;-54
2023/04/11 08:53:01;;;;;;;5.10;3.00;;;;;;;;;;5011143;28;20657;-54
2023/04/11 08:55:27;;;;;;;6.13;2.77;;;;;;;;;;5010846;28;20557;-55
2023/04/11 08:57:57;;;;;;;4.07;2.60;;;;;;;;;;5011669;28;20193;-55
2023/04/11 09:00:24;;;;;;;7.60;2.50;;;;;;;;;;5011373;28;20641;-56
2023/04/11 09:02:55;;;;;;;5.93;2.13;;;;;;;;;;5011845;28;20186;-56
2023/04/11 09:05:24;;;;;;;3.77;2.30;;;;;;;;;;5011413;28;20249;-55
2023/04/11 09:07:50;;;;;;;5.17;2.40;;;;;;;;;;5011080;28;20217;-53
2023/04/11 09:10:18;;;;;;;4.83;2.40;;;;;;;;;;5006770;28;20800;-54
2023/04/11 09:12:44;;;;;;;3.73;2.10;;;;;;;;;;4998158;28;20238;-55
2023/04/11 09:15:17;;;;;;;5.17;2.13;;;;;;;;;;5004031;28;20179;-54
2023/04/11 09:17:44;;;;;;;7.83;3.03;;;;;;;;;;5002781;28;20190;-54
2023/04/11 09:20:17;;;;;;;4.73;2.03;;;;;;;;;;4999806;28;20234;-54
2023/04/11 09:22:43;;;;;;;8.03;2.57;;;;;;;;;;5007902;28;20237;-54
2023/04/11 09:25:09;;;;;;;4.63;2.27;;;;;;;;;;5006850;28;20171;-55
2023/04/11 09:27:35;;;;;;;4.43;2.30;;;;;;;;;;5009863;28;20302;-54
2023/04/11 09:30:02;;;;;;;9.07;2.67;;;;;;;;;;5006624;28;20178;-54
2023/04/11 09:32:32;;;;;;;4.90;2.30;;;;;;;;;;4999366;28;20686;-54
2023/04/11 09:35:08;;;;;;;6.93;2.40;;;;;;;;;;4997683;28;20513;-54
2023/04/11 09:37:48;;;;;;;6.57;2.30;;;;;;;;;;5001848;28;20276;-55
2023/04/11 09:40:15;;;;;;;7.43;2.50;;;;;;;;;;4995516;28;20182;-54
2023/04/11 09:42:42;;;;;;;6.67;2.63;;;;;;;;;;5001281;28;20282;-53
2023/04/11 09:45:18;;;;;;;6.00;2.70;;;;;;;;;;4998576;28;20180;-54
2023/04/11 09:47:45;;;;;;;4.37;2.20;;;;;;;;;;5000737;28;20213;-54
2023/04/11 09:50:11;;;;;;;6.63;3.17;;;;;;;;;;5002377;28;20186;-54
2023/04/11 09:52:40;;;;;;;6.67;2.33;;;;;;;;;;5003885;28;20175;-54
2023/04/11 09:55:06;;;;;;;4.47;2.53;;;;;;;;;;5018771;28;20182;-54
2023/04/11 09:57:33;;;;;;;6.10;2.83;;;;;;;;;;5003972;28;20189;-55
2023/04/11 10:00:13;;;;;;;5.17;2.67;;;;;;;;;;5007007;28;21029;-54
2023/04/11 10:02:39;;;;;;;6.47;2.63;;;;;;;;;;5001931;28;20325;-55
2023/04/11 10:05:07;;;;;;;8.10;2.70;;;;;;;;;;4999466;28;20689;-54
2023/04/11 10:07:33;;;;;;;5.13;2.23;;;;;;;;;;4998400;28;20174;-54
2023/04/11 10:10:00;;;;;;;3.13;2.33;;;;;;;;;;5003650;28;20174;-54
2023/04/11 10:12:30;;;;;;;6.47;2.53;;;;;;;;;;5003720;28;20616;-54
2023/04/11 10:14:56;;;;;;;5.87;2.47;;;;;;;;;;5004008;28;20190;-54
2023/04/11 10:17:24;;;;;;;4.27;2.80;;;;;;;;;;5001986;28;20179;-54
2023/04/11 10:19:55;;;;;;;5.57;2.53;;;;;;;;;;5006598;28;20262;-54
2023/04/11 10:22:40;;;;;;;7.27;3.43;;;;;;;;;;5001703;28;20602;-55
2023/04/11 10:25:16;;;;;;;6.53;3.30;;;;;;;;;;4998277;28;20181;-55
2023/04/11 10:27:52;;;;;;;4.53;3.33;;;;;;;;;;5003118;28;20186;-55
2023/04/11 10:30:18;;;;;;;4.60;3.00;;;;;;;;;;5000549;28;20174;-54
2023/04/11 10:33:03;;;;;;;5.60;3.27;;;;;;;;;;5003057;28;20998;-55
2023/04/11 10:35:29;;;;;;;4.63;2.97;;;;;;;;;;5004553;28;20615;-55
2023/04/11 10:37:55;;;;;;;3.93;2.73;;;;;;;;;;5002937;28;20191;-55
2023/04/11 10:40:23;;;;;;;5.93;3.03;;;;;;;;;;4999743;28;20702;-54
2023/04/11 10:42:50;;;;;;;8.80;3.60;;;;;;;;;;4993403;28;20187;-55
2023/04/11 10:45:20;;;;;;;4.10;2.83;;;;;;;;;;5000094;28;20657;-55
2023/04/11 10:47:55;;;;;;;4.40;2.80;;;;;;;;;;5002369;28;20220;-55
2023/04/11 10:50:27;;;;;;;8.40;3.40;;;;;;;;;;5005693;28;20170;-55
2023/04/11 10:52:56;;;;;;;8.57;3.00;;;;;;;;;;5001709;28;20520;-55
2023/04/11 10:55:23;;;;;;;4.90;2.50;;;;;;;;;;5008412;28;20740;-55
2023/04/11 10:58:08;;;;;;;5.57;2.70;;;;;;;;;;5004359;28;20182;-54
2023/04/11 11:00:49;;;;;;;4.93;2.93;;;;;;;;;;5004001;28;20175;-55
2023/04/11 11:03:19;;;;;;;2.73;2.37;;;;;;;;;;5004205;28;20591;-55
2023/04/11 11:05:46;;;;;;;5.43;2.70;;;;;;;;;;4998602;28;20647;-53
2023/04/11 11:08:12;;;;;;;3.80;2.33;;;;;;;;;;4999308;28;20527;-55
2023/04/11 11:10:39;;;;;;;3.77;2.90;;;;;;;;;;5003922;28;20807;-55
2023/04/11 11:13:05;;;;;;;4.13;2.10;;;;;;;;;;4992208;28;20195;-54
2023/04/11 11:15:36;;;;;;;4.27;2.57;;;;;;;;;;4997763;28;20701;-55
2023/04/11 11:18:03;;;;;;;4.07;2.47;;;;;;;;;;4996894;28;20215;-55
2023/04/11 11:20:29;;;;;;;5.07;2.70;;;;;;;;;;4999112;28;20174;-54
2023/04/11 11:23:05;;;;;;;7.93;2.73;;;;;;;;;;5003762;28;20226;-53
2023/04/11 11:25:32;;;;;;;7.20;2.83;;;;;;;;;;4999879;28;20178;-53
2023/04/11 11:28:02;;;;;;;6.83;2.57;;;;;;;;;;5004674;28;20580;-53
2023/04/11 11:30:28;;;;;;;4.80;2.67;;;;;;;;;;5006141;28;20178;-53
2023/04/11 11:32:55;;;;;;;4.10;2.53;;;;;;;;;;5003598;28;20555;-52
2023/04/11 11:35:21;;;;;;;6.17;2.67;;;;;;;;;;5007922;28;20270;-52
2023/04/11 11:37:50;;;;;;;5.87;2.87;;;;;;;;;;5006088;28;20191;-53
2023/04/11 11:40:17;;;;;;;5.30;2.50;;;;;;;;;;5005896;28;20200;-53
2023/04/11 11:42:44;;;;;;;10.30;2.70;;;;;;;;;;5004306;28;20204;-52
2023/04/11 11:45:13;;;;;;;5.87;2.83;;;;;;;;;;5002840;28;20336;-53
2023/04/11 11:47:43;;;;;;;3.77;2.90;;;;;;;;;;5005003;28;20540;-52
2023/04/11 11:50:10;;;;;;;6.30;2.67;;;;;;;;;;5001959;28;20223;-52
2023/04/11 11:52:42;;;;;;;3.10;2.30;;;;;;;;;;5005789;28;20594;-53
2023/04/11 11:55:09;;;;;;;4.03;2.50;;;;;;;;;;5005172;28;20201;-52
2023/04/11 11:57:36;;;;;;;7.50;3.07;;;;;;;;;;5005202;28;20205;-52
2023/04/11 12:00:08;;;;;;;3.83;2.77;;;;;;;;;;5003294;28;20750;-52
2023/04/11 12:02:35;;;;;;;6.47;2.20;;;;;;;;;;5014763;28;20270;-52
2023/04/11 12:05:03;;;;;;;3.63;2.13;;;;;;;;;;5007126;28;20226;-52
2023/04/11 12:07:33;;;;;;;3.47;2.70;;;;;;;;;;5010717;28;20190;-53
2023/04/11 12:10:05;;;;;;;6.23;2.40;;;;;;;;;;5014517;28;20178;-52
2023/04/11 12:12:33;;;;;;;3.83;3.17;;;;;;;;;;5010748;28;20209;-52
2023/04/11 12:15:00;;;;;;;3.07;2.53;;;;;;;;;;5010225;28;20259;-52
2023/04/11 12:17:31;;;;;;;2.97;2.07;;;;;;;;;;5021847;28;20173;-52
2023/04/11 12:19:57;;;;;;;3.33;2.37;;;;;;;;;;5009110;28;20179;-52
2023/04/11 12:22:23;;;;;;;2.57;2.30;;;;;;;;;;5014582;28;20294;-52
2023/04/11 12:24:51;;;;;;;4.37;2.20;;;;;;;;;;5018934;28;20186;-52
2023/04/11 12:27:18;;;;;;;3.10;2.30;;;;;;;;;;5005169;28;20389;-52
2023/04/11 12:29:45;;;;;;;3.07;2.10;;;;;;;;;;5010992;28;20331;-53
2023/04/11 12:32:11;;;;;;;3.00;2.23;;;;;;;;;;5001782;28;20186;-53
2023/04/11 12:34:37;;;;;;;4.43;2.27;;;;;;;;;;5010285;28;20229;-53
2023/04/11 12:37:03;;;;;;;4.00;2.13;;;;;;;;;;5008217;28;20183;-52
2023/04/11 12:39:30;;;;;;;3.60;2.10;;;;;;;;;;5015206;28;20178;-52
2023/04/11 12:41:56;;;;;;;5.17;1.83;;;;;;;;;;5023916;28;20451;-52
2023/04/11 12:44:23;;;;;;;3.77;2.23;;;;;;;;;;5011081;28;20190;-52
2023/04/11 12:46:49;;;;;;;4.47;2.13;;;;;;;;;;5022636;28;20633;-52
2023/04/11 12:49:15;;;;;;;3.20;1.90;;;;;;;;;;5011767;28;20336;-53
2023/04/11 12:51:41;;;;;;;4.37;2.03;;;;;;;;;;5008002;28;20244;-53
2023/04/11 12:54:07;;;;;;;4.47;2.20;;;;;;;;;;5011608;28;20186;-52
2023/04/11 12:56:33;;;;;;;4.63;2.47;;;;;;;;;;5010073;28;20265;-52
2023/04/11 12:58:59;;;;;;;5.57;2.40;;;;;;;;;;5017745;28;20662;-52
2023/04/11 13:01:26;;;;;;;3.70;2.20;;;;;;;;;;5011445;28;20214;-52
2023/04/11 13:03:52;;;;;;;3.33;2.27;;;;;;;;;;5010220;28;20536;-52
2023/04/11 13:06:18;;;;;;;3.33;2.23;;;;;;;;;;5015568;28;20178;-52
2023/04/11 13:08:44;;;;;;;4.77;1.90;;;;;;;;;;5007113;28;20749;-52
2023/04/11 13:11:10;;;;;;;6.00;1.63;;;;;;;;;;5003110;28;20203;-52
2023/04/11 13:19:45;;;;;;;4.07;1.97;;;;;;;;;;5005282;28;20205;-52
2023/04/11 13:22:11;;;;;;;2.33;1.50;;;;;;;;;;5009853;28;20738;-52
2023/04/11 13:24:37;;;;;;;4.27;1.70;;;;;;;;;;5007491;28;20198;-53
2023/04/11 13:27:03;;;;;;;2.37;1.60;;;;;;;;;;5010887;28;20824;-52
2023/04/11 13:29:29;;;;;;;2.87;1.60;;;;;;;;;;5004083;28;20187;-52
2023/04/11 13:31:55;;;;;;;2.37;1.57;;;;;;;;;;4995995;28;20186;-52
2023/04/11 13:34:21;;;;;;;3.03;1.60;;;;;;;;;;4998538;28;20230;-52
2023/04/11 13:36:47;;;;;;;2.77;1.60;;;;;;;;;;5001091;28;20182;-52
2023/04/11 13:39:13;;;;;;;3.67;1.70;;;;;;;;;;5001552;28;20178;-53
2023/04/11 13:41:39;;;;;;;4.27;2.30;;;;;;;;;;5009272;28;20202;-53
2023/04/11 13:44:05;;;;;;;4.30;2.00;;;;;;;;;;5016708;28;20274;-53
2023/04/11 13:46:31;;;;;;;3.30;1.40;;;;;;;;;;5000609;28;20174;-52
2023/04/11 13:48:57;;;;;;;1.70;1.50;;;;;;;;;;5006619;28;20546;-53
2023/04/11 13:51:23;;;;;;;4.80;1.83;;;;;;;;;;5014067;28;20212;-52
2023/04/11 13:53:49;;;;;;;2.13;1.80;;;;;;;;;;5005518;28;20205;-53
2023/04/11 13:56:15;;;;;;;4.33;1.60;;;;;;;;;;5014899;28;20615;-52
2023/04/11 13:58:42;;;;;;;5.50;2.40;;;;;;;;;;5006760;28;20831;-52
2023/04/11 14:01:09;;;;;;;5.23;2.60;;;;;;;;;;5003006;28;20289;-52
2023/04/11 14:03:35;;;;;;;4.07;1.63;;;;;;;;;;5011530;28;20400;-52
2023/04/11 14:06:02;;;;;;;3.90;1.60;;;;;;;;;;5006882;28;20658;-52
2023/04/11 14:08:28;;;;;;;5.03;2.20;;;;;;;;;;5006931;28;20179;-53
2023/04/11 14:10:54;;;;;;;2.70;2.00;;;;;;;;;;5008874;28;20229;-52
2023/04/11 14:13:21;;;;;;;3.33;1.90;;;;;;;;;;5002993;28;20217;-52
2023/04/11 14:15:47;;;;;;;3.47;1.70;;;;;;;;;;5005297;28;20187;-53
2023/04/11 14:18:13;;;;;;;6.07;2.00;;;;;;;;;;5012030;28;20186;-52
2023/04/11 14:20:39;;;;;;;3.07;1.70;;;;;;;;;;5013389;28;20182;-52
2023/04/11 14:23:15;;;;;;;3.67;2.30;;;;;;;;;;5076266;27;20775;-52
2023/04/11 14:25:41;;;;;;;2.70;1.77;;;;;;;;;;5059721;28;21652;-52
2023/04/11 14:28:07;;;;;;;3.50;1.63;;;;;;;;;;5059322;28;20192;-52
2023/04/11 14:30:34;;;;;;;2.33;1.60;;;;;;;;;;5063085;28;20176;-52
2023/04/11 14:33:00;;;;;;;4.63;1.80;;;;;;;;;;5054158;28;20416;-52
2023/04/11 14:35:26;;;;;;;4.37;1.80;;;;;;;;;;5065609;28;20184;-52
2023/04/11 14:37:52;;;;;;;3.80;1.67;;;;;;;;;;5059176;28;20610;-52
2023/04/11 14:40:19;;;;;;;2.77;1.63;;;;;;;;;;5051351;28;20172;-52
2023/04/11 14:42:45;;;;;;;2.50;1.93;;;;;;;;;;5052088;28;20263;-53
2023/04/11 14:45:11;;;;;;;16.40;3.20;;;;;;;;;;5058901;28;20443;-51